KSJC/SJC METAR and TAF weather

Enter ICAO airport designator
Station Type Date Time Source
KSJC METAR 2020/03/29 14:53 UTC NOAA

KSJC 291453Z 16007KT 10SM FEW014 BKN060 BKN150 10/08 A3012 RMK AO2 SLP200 60000 T01000078 53009


Station Type Date Time Source
KSJC Decoded METAR 2020/03/29 14:53 UTC NOAA

SAN JOSE INTERNATIONAL AIRPORT, CA, United States (KSJC) 37-22N 121-55W 25M
Mar 29, 2020 - 10:53 AM EDT / 2020.03.29 1453 UTC
Wind: from the SSE (160 degrees) at 8 MPH (7 KT):0
Visibility: 10 mile(s):0
Sky conditions: mostly cloudy
Temperature: 50.0 F (10.0 C)
Dew Point: 46.0 F (7.8 C)
Relative Humidity: 86%
Pressure (altimeter): 30.12 in. Hg (1019 hPa)
Pressure tendency: 0.03 inches (0.9 hPa) higher than three hours ago
ob: KSJC 291453Z 16007KT 10SM FEW014 BKN060 BKN150 10/08 A3012 RMK AO2 SLP200 60000 T01000078 53009
cycle: 15

Station Type Date Time Source
KSJC TAF 2020/03/29 12:27 UTC NOAA

TAF KSJC 291125Z 2912/3012 14008KT P6SM -SHRA BKN030 OVC050
TEMPO 2914/2918 2SM SHRA BR BKN015 OVC030
FM292000 30010KT P6SM VCSH BKN040
FM300400 VRB04KT P6SM SCT030 BKN040
FM300600 VRB03KT P6SM BKN025

Example: see airport list